Time;durP1;ratioP1;P1;durP2;ratioP2;P2;SDS_P1;SDS_P2;PMS_P1;PMS_P2;Temp;Humidity;BMP_temperature;BMP_pressure;BME280_temperature;BME280_humidity;BME280_pressure;Samples;Min_cycle;Max_cycle;Signal;HPM_P1;HPM_P2
2022/12/19 00:02:23;;;;;;;45.13;16.88;;;;;;;;;;5018129;28;20379;-81
2022/12/19 00:04:49;;;;;;;38.88;16.65;;;;;;;;;;5017176;28;20044;-81
2022/12/19 00:07:14;;;;;;;42.55;16.55;;;;;;;;;;5017854;28;20029;-81
2022/12/19 00:09:39;;;;;;;35.25;14.93;;;;;;;;;;5016727;28;20438;-82
2022/12/19 00:12:05;;;;;;;32.78;14.88;;;;;;;;;;5016745;28;20029;-81
2022/12/19 00:14:30;;;;;;;33.00;14.25;;;;;;;;;;5017064;28;20463;-82
2022/12/19 00:16:56;;;;;;;34.45;15.07;;;;;;;;;;4999166;28;20026;-82
2022/12/19 00:19:21;;;;;;;35.97;15.20;;;;;;;;;;5017620;28;20080;-82
2022/12/19 00:21:47;;;;;;;32.78;14.77;;;;;;;;;;5017297;28;20025;-82
2022/12/19 00:24:13;;;;;;;34.28;15.45;;;;;;;;;;5015984;28;20038;-81
2022/12/19 00:26:38;;;;;;;32.85;15.18;;;;;;;;;;5016637;28;20431;-82
2022/12/19 00:29:06;;;;;;;35.75;15.93;;;;;;;;;;5016941;28;20070;-81
2022/12/19 00:31:34;;;;;;;33.42;14.85;;;;;;;;;;5016554;28;20036;-81
2022/12/19 00:34:00;;;;;;;33.03;14.68;;;;;;;;;;5016298;28;20037;-81
2022/12/19 00:36:28;;;;;;;30.92;14.27;;;;;;;;;;4998935;28;20030;-82
2022/12/19 00:38:55;;;;;;;32.72;14.73;;;;;;;;;;5015373;28;20033;-81
2022/12/19 00:41:23;;;;;;;32.08;14.27;;;;;;;;;;4998492;28;20030;-82
2022/12/19 00:43:57;;;;;;;31.80;14.07;;;;;;;;;;4998467;28;20038;-82
2022/12/19 00:46:23;;;;;;;30.40;14.40;;;;;;;;;;4998437;28;20041;-81
2022/12/19 00:48:48;;;;;;;32.33;14.32;;;;;;;;;;5014927;28;20666;-82
2022/12/19 00:51:19;;;;;;;34.35;14.15;;;;;;;;;;5014851;28;20064;-81
2022/12/19 00:53:46;;;;;;;35.05;15.32;;;;;;;;;;4998094;28;20678;-79
2022/12/19 00:56:15;;;;;;;33.35;14.13;;;;;;;;;;4997508;28;20041;-81
2022/12/19 00:58:41;;;;;;;32.15;13.77;;;;;;;;;;5015603;28;20036;-82
2022/12/19 01:01:40;;;;;;;36.25;14.88;;;;;;;;;;4998971;28;20037;-82
2022/12/19 01:04:07;;;;;;;34.30;14.85;;;;;;;;;;4982464;28;20069;-81
2022/12/19 01:06:33;;;;;;;34.70;14.98;;;;;;;;;;5017356;28;20433;-81
2022/12/19 01:08:59;;;;;;;34.85;14.85;;;;;;;;;;5002379;28;20034;-82
2022/12/19 01:14:10;;;;;;;33.50;14.45;;;;;;;;;;4998516;28;20033;-81
2022/12/19 01:16:35;;;;;;;37.28;15.90;;;;;;;;;;5017134;28;20038;-82
2022/12/19 01:19:01;;;;;;;35.60;15.15;;;;;;;;;;4999553;28;20026;-82
2022/12/19 01:21:26;;;;;;;41.10;15.70;;;;;;;;;;5017494;28;20038;-81
2022/12/19 01:23:52;;;;;;;37.67;16.15;;;;;;;;;;4999107;28;20026;-82
2022/12/19 01:26:17;;;;;;;36.92;14.90;;;;;;;;;;4998676;28;20080;-82
2022/12/19 01:28:43;;;;;;;40.35;15.27;;;;;;;;;;4998938;28;20457;-81
2022/12/19 01:31:08;;;;;;;37.40;15.32;;;;;;;;;;5016668;28;20471;-83
2022/12/19 01:33:34;;;;;;;35.08;14.40;;;;;;;;;;4998644;28;20034;-81
2022/12/19 01:36:06;;;;;;;32.63;14.20;;;;;;;;;;4998448;28;20030;-81
2022/12/19 01:38:34;;;;;;;33.13;14.85;;;;;;;;;;5017096;28;20030;-82
2022/12/19 01:41:00;;;;;;;36.03;15.52;;;;;;;;;;5015085;28;20026;-81
2022/12/19 01:43:30;;;;;;;32.25;14.55;;;;;;;;;;4998771;28;20037;-81
2022/12/19 01:46:04;;;;;;;35.25;15.13;;;;;;;;;;5014960;28;20041;-82
2022/12/19 01:48:41;;;;;;;35.08;15.15;;;;;;;;;;4999421;28;20120;-81
2022/12/19 01:51:17;;;;;;;35.30;15.27;;;;;;;;;;4999116;28;20030;-82
2022/12/19 01:53:46;;;;;;;38.70;15.73;;;;;;;;;;5015518;28;20033;-81
2022/12/19 01:56:12;;;;;;;41.65;16.92;;;;;;;;;;4998505;28;20045;-81
2022/12/19 01:58:45;;;;;;;37.72;16.52;;;;;;;;;;4998296;28;20041;-83
2022/12/19 02:01:13;;;;;;;40.03;15.93;;;;;;;;;;4999282;28;20087;-82
2022/12/19 02:03:40;;;;;;;40.53;15.85;;;;;;;;;;4998957;28;20276;-81
2022/12/19 02:06:09;;;;;;;37.90;15.35;;;;;;;;;;4997848;28;20029;-81
2022/12/19 02:08:35;;;;;;;43.20;15.55;;;;;;;;;;4999009;28;20033;-81
2022/12/19 02:11:01;;;;;;;35.95;14.98;;;;;;;;;;4998698;28;20474;-80
2022/12/19 02:13:28;;;;;;;40.47;15.23;;;;;;;;;;4998085;28;20033;-81
2022/12/19 02:16:18;;;;;;;35.22;14.68;;;;;;;;;;5013885;28;20021;-83
2022/12/19 02:18:59;;;;;;;35.58;14.15;;;;;;;;;;4998408;28;20025;-81
2022/12/19 02:21:34;;;;;;;33.78;14.38;;;;;;;;;;4998536;28;20522;-82
2022/12/19 02:24:29;;;;;;;36.22;14.40;;;;;;;;;;4997673;28;20038;-83
2022/12/19 02:27:00;;;;;;;35.70;14.43;;;;;;;;;;4998024;28;20030;-82
2022/12/19 02:29:42;;;;;;;31.67;13.63;;;;;;;;;;4998282;28;20036;-82
2022/12/19 02:32:24;;;;;;;34.35;14.27;;;;;;;;;;5015820;28;20049;-80
2022/12/19 02:35:08;;;;;;;34.78;14.75;;;;;;;;;;5014812;28;20034;-82
2022/12/19 02:38:00;;;;;;;31.40;14.18;;;;;;;;;;4997587;28;20112;-83
2022/12/19 02:40:31;;;;;;;31.52;14.35;;;;;;;;;;5010547;28;20048;-83
2022/12/19 02:43:00;;;;;;;33.95;14.38;;;;;;;;;;4998129;28;20061;-82
2022/12/19 02:45:30;;;;;;;34.53;14.93;;;;;;;;;;5040503;23;20072;-83
2022/12/19 02:47:59;;;;;;;30.23;14.80;;;;;;;;;;5000010;28;20034;-83
2022/12/19 02:50:24;;;;;;;42.60;17.60;;;;;;;;;;5018831;28;20040;-82
2022/12/19 02:52:51;;;;;;;35.63;15.20;;;;;;;;;;5025800;28;20025;-83
2022/12/19 02:55:22;;;;;;;34.55;15.55;;;;;;;;;;5020703;28;20638;-85
2022/12/19 02:58:19;;;;;;;37.10;14.90;;;;;;;;;;5021291;28;20060;-83
2022/12/19 03:01:20;;;;;;;32.40;13.75;;;;;;;;;;5020895;28;20090;-83
2022/12/19 03:04:04;;;;;;;37.20;14.85;;;;;;;;;;5004724;28;20132;-81
2022/12/19 03:07:08;;;;;;;31.85;14.07;;;;;;;;;;5005148;28;20022;-84
2022/12/19 03:09:44;;;;;;;32.83;13.77;;;;;;;;;;4977325;28;20121;-83
2022/12/19 03:12:17;;;;;;;32.88;13.63;;;;;;;;;;4960902;28;20077;-80
2022/12/19 03:14:44;;;;;;;33.38;13.93;;;;;;;;;;4995321;28;20568;-83
2022/12/19 03:17:13;;;;;;;28.55;13.65;;;;;;;;;;5003976;28;20040;-85
2022/12/19 03:19:39;;;;;;;32.05;14.32;;;;;;;;;;5019852;28;20044;-84
2022/12/19 03:22:06;;;;;;;36.47;14.68;;;;;;;;;;5037587;28;20036;-83
2022/12/19 03:24:32;;;;;;;32.08;13.73;;;;;;;;;;5019427;28;20025;-84
2022/12/19 03:27:22;;;;;;;31.52;13.80;;;;;;;;;;5037695;28;20044;-83
2022/12/19 03:29:56;;;;;;;28.77;13.25;;;;;;;;;;5019588;28;20069;-83
2022/12/19 03:32:23;;;;;;;33.17;14.18;;;;;;;;;;5037298;28;20496;-85
2022/12/19 03:34:58;;;;;;;32.03;12.98;;;;;;;;;;5019457;28;20112;-83
2022/12/19 03:37:28;;;;;;;31.27;13.52;;;;;;;;;;5037306;28;20136;-84
2022/12/19 03:39:59;;;;;;;30.63;13.77;;;;;;;;;;5036840;28;20063;-84
2022/12/19 03:45:25;;;;;;;34.17;14.23;;;;;;;;;;5036179;28;20032;-82
2022/12/19 03:47:57;;;;;;;30.77;13.63;;;;;;;;;;5018177;28;20482;-82
2022/12/19 03:50:26;;;;;;;40.28;16.63;;;;;;;;;;5036585;28;20090;-84
2022/12/19 03:53:09;;;;;;;39.20;16.25;;;;;;;;;;5018189;28;20111;-84
2022/12/19 03:55:48;;;;;;;43.67;17.90;;;;;;;;;;5035715;28;20079;-83
2022/12/19 03:58:26;;;;;;;40.70;16.40;;;;;;;;;;5035966;28;20037;-85
2022/12/19 04:00:53;;;;;;;43.20;17.05;;;;;;;;;;5018001;28;20496;-83
2022/12/19 04:03:21;;;;;;;40.75;16.17;;;;;;;;;;5017785;28;20033;-82
2022/12/19 04:05:48;;;;;;;40.45;16.23;;;;;;;;;;5034573;28;20493;-82
2022/12/19 04:08:15;;;;;;;41.88;15.63;;;;;;;;;;5017486;28;20053;-81
2022/12/19 04:10:51;;;;;;;42.50;16.95;;;;;;;;;;5024467;28;20033;-82
2022/12/19 04:13:22;;;;;;;49.95;17.55;;;;;;;;;;5019151;28;20108;-82
2022/12/19 04:16:10;;;;;;;38.15;15.20;;;;;;;;;;5035774;28;20041;-82
2022/12/19 04:18:39;;;;;;;36.25;15.93;;;;;;;;;;5018731;28;20029;-84
2022/12/19 04:21:12;;;;;;;39.17;16.35;;;;;;;;;;5036734;28;20053;-84
2022/12/19 04:23:44;;;;;;;41.53;15.75;;;;;;;;;;5018526;28;20033;-81
2022/12/19 04:26:12;;;;;;;39.60;16.17;;;;;;;;;;5035911;28;20033;-84
2022/12/19 04:28:48;;;;;;;39.03;15.88;;;;;;;;;;5018102;28;20030;-85
2022/12/19 04:31:15;;;;;;;42.15;17.30;;;;;;;;;;5040874;28;20389;-84
2022/12/19 04:33:41;;;;;;;40.17;16.90;;;;;;;;;;5041645;28;20479;-84
2022/12/19 04:36:09;;;;;;;39.53;16.65;;;;;;;;;;5023105;28;20075;-84
2022/12/19 04:38:34;;;;;;;42.00;17.83;;;;;;;;;;5024104;28;20075;-82
2022/12/19 04:41:00;;;;;;;38.67;17.25;;;;;;;;;;5041770;28;20029;-84
2022/12/19 04:43:25;;;;;;;36.78;15.70;;;;;;;;;;5041705;28;20087;-84
2022/12/19 04:45:51;;;;;;;44.58;17.13;;;;;;;;;;5038422;28;20029;-86
2022/12/19 04:48:16;;;;;;;40.60;16.55;;;;;;;;;;5039798;28;20029;-83
2022/12/19 04:50:42;;;;;;;43.95;17.08;;;;;;;;;;5038359;28;20029;-84
2022/12/19 04:53:07;;;;;;;38.47;15.65;;;;;;;;;;5037287;28;20124;-83
2022/12/19 04:55:33;;;;;;;44.47;16.92;;;;;;;;;;5036730;28;20040;-84
2022/12/19 04:57:58;;;;;;;38.38;16.35;;;;;;;;;;5020388;28;20071;-82
2022/12/19 05:00:27;;;;;;;40.20;16.42;;;;;;;;;;5037966;28;20035;-83
2022/12/19 05:02:52;;;;;;;39.85;16.15;;;;;;;;;;5038197;28;20037;-84
2022/12/19 05:05:18;;;;;;;43.35;17.10;;;;;;;;;;5038412;28;20079;-84
2022/12/19 05:07:43;;;;;;;44.25;16.75;;;;;;;;;;5020470;28;20132;-83
2022/12/19 05:10:09;;;;;;;40.20;17.10;;;;;;;;;;5038721;28;20036;-84
2022/12/19 05:12:34;;;;;;;38.40;16.05;;;;;;;;;;5019354;28;20054;-84
2022/12/19 05:14:59;;;;;;;39.53;17.00;;;;;;;;;;5000218;28;20025;-82
2022/12/19 05:17:25;;;;;;;45.20;17.65;;;;;;;;;;5016304;28;20389;-83
2022/12/19 05:19:50;;;;;;;40.30;16.67;;;;;;;;;;5034245;28;20034;-82
2022/12/19 05:22:16;;;;;;;38.72;16.20;;;;;;;;;;5016340;28;20037;-82
2022/12/19 05:24:41;;;;;;;44.03;18.38;;;;;;;;;;5033259;28;20026;-82
2022/12/19 05:27:07;;;;;;;41.47;17.95;;;;;;;;;;5032823;28;20039;-83
2022/12/19 05:29:33;;;;;;;45.85;16.52;;;;;;;;;;5026237;28;20037;-83
2022/12/19 05:31:59;;;;;;;38.92;17.08;;;;;;;;;;5036121;28;20108;-84
2022/12/19 05:34:24;;;;;;;45.25;18.83;;;;;;;;;;5034943;28;20064;-83
2022/12/19 05:36:50;;;;;;;41.15;17.23;;;;;;;;;;5035791;28;20021;-81
2022/12/19 05:39:15;;;;;;;39.75;17.17;;;;;;;;;;5018346;28;20407;-83
2022/12/19 05:41:41;;;;;;;50.38;19.48;;;;;;;;;;5017650;28;20037;-84
2022/12/19 05:44:06;;;;;;;55.75;21.90;;;;;;;;;;5017319;28;20071;-84
2022/12/19 05:46:32;;;;;;;48.40;19.33;;;;;;;;;;5035284;28;20125;-82
2022/12/19 05:48:58;;;;;;;40.22;17.88;;;;;;;;;;5017573;28;20082;-84
2022/12/19 05:51:24;;;;;;;44.75;18.15;;;;;;;;;;5035028;28;20041;-82
2022/12/19 05:53:49;;;;;;;44.65;17.75;;;;;;;;;;5034844;28;20025;-81
2022/12/19 05:56:18;;;;;;;41.90;17.70;;;;;;;;;;5016079;28;20036;-81
2022/12/19 05:58:45;;;;;;;49.05;19.00;;;;;;;;;;5034907;28;20397;-84
2022/12/19 06:01:14;;;;;;;44.38;18.95;;;;;;;;;;5016256;28;20038;-82
2022/12/19 06:03:40;;;;;;;54.53;21.85;;;;;;;;;;5034944;28;20059;-83
2022/12/19 06:06:08;;;;;;;41.05;17.45;;;;;;;;;;5000337;28;20021;-83
2022/12/19 06:08:35;;;;;;;41.67;18.10;;;;;;;;;;5017332;28;20027;-86
2022/12/19 06:11:02;;;;;;;46.28;20.20;;;;;;;;;;5034429;28;20037;-83
2022/12/19 06:13:29;;;;;;;51.72;21.27;;;;;;;;;;5034079;28;20140;-82
2022/12/19 06:16:02;;;;;;;48.15;19.83;;;;;;;;;;5033341;28;20029;-85
2022/12/19 06:18:28;;;;;;;67.85;27.80;;;;;;;;;;5016644;28;20040;-83
2022/12/19 06:20:58;;;;;;;46.75;19.63;;;;;;;;;;4999076;28;20037;-83
2022/12/19 06:23:24;;;;;;;48.25;18.95;;;;;;;;;;5034029;28;20041;-85
2022/12/19 06:25:49;;;;;;;70.93;28.63;;;;;;;;;;5034686;28;20026;-80
2022/12/19 06:28:15;;;;;;;49.90;20.77;;;;;;;;;;5019359;28;20182;-83
2022/12/19 06:30:40;;;;;;;52.40;22.35;;;;;;;;;;5037641;28;20025;-84
2022/12/19 06:33:05;;;;;;;50.95;19.52;;;;;;;;;;5036594;28;20118;-81
2022/12/19 06:35:31;;;;;;;58.80;22.33;;;;;;;;;;5036141;28;20029;-84
2022/12/19 06:37:56;;;;;;;115.22;48.85;;;;;;;;;;5036522;28;20038;-82
2022/12/19 06:43:06;;;;;;;56.25;23.25;;;;;;;;;;5036014;28;20052;-82
2022/12/19 06:45:31;;;;;;;50.72;19.55;;;;;;;;;;5035387;28;20505;-84
2022/12/19 06:47:57;;;;;;;41.90;18.08;;;;;;;;;;5009012;28;20013;-80
2022/12/19 06:50:23;;;;;;;44.67;17.30;;;;;;;;;;5042337;28;20099;-83
2022/12/19 06:52:48;;;;;;;40.88;15.95;;;;;;;;;;5020315;28;20025;-83
2022/12/19 06:55:14;;;;;;;39.28;15.60;;;;;;;;;;5018980;28;20497;-83
2022/12/19 06:57:44;;;;;;;42.97;17.08;;;;;;;;;;5019601;28;20063;-82
2022/12/19 07:00:12;;;;;;;40.88;16.92;;;;;;;;;;5038269;28;20030;-82
2022/12/19 07:02:39;;;;;;;51.22;18.42;;;;;;;;;;5002846;28;20033;-84
2022/12/19 07:05:06;;;;;;;45.70;18.38;;;;;;;;;;5036461;28;20030;-83
2022/12/19 07:07:32;;;;;;;40.13;17.55;;;;;;;;;;5036567;28;20037;-82
2022/12/19 07:09:58;;;;;;;42.30;17.05;;;;;;;;;;5019151;28;20113;-83
2022/12/19 07:12:23;;;;;;;37.67;17.02;;;;;;;;;;5037348;28;20075;-82
2022/12/19 07:14:49;;;;;;;60.70;21.25;;;;;;;;;;5018948;28;20075;-82
2022/12/19 07:17:15;;;;;;;61.50;20.60;;;;;;;;;;5037670;28;20486;-83
2022/12/19 07:19:40;;;;;;;47.67;18.60;;;;;;;;;;5038335;28;20103;-83
2022/12/19 07:22:06;;;;;;;44.60;19.00;;;;;;;;;;5038741;28;20034;-83
2022/12/19 07:24:34;;;;;;;43.50;18.60;;;;;;;;;;5037157;28;20079;-81
2022/12/19 07:26:59;;;;;;;45.88;19.98;;;;;;;;;;5036982;28;20021;-82
2022/12/19 07:29:25;;;;;;;42.85;18.38;;;;;;;;;;5036330;28;20127;-84
2022/12/19 07:31:51;;;;;;;41.33;18.98;;;;;;;;;;5000560;28;20014;-83
2022/12/19 07:34:16;;;;;;;42.72;19.83;;;;;;;;;;5017335;28;20056;-84
2022/12/19 07:36:42;;;;;;;42.35;17.27;;;;;;;;;;4983261;28;20094;-83
2022/12/19 07:39:07;;;;;;;47.78;20.30;;;;;;;;;;5020801;28;20474;-83
2022/12/19 07:41:36;;;;;;;67.22;24.98;;;;;;;;;;5018246;28;20025;-83
2022/12/19 07:44:01;;;;;;;61.00;23.23;;;;;;;;;;5037173;28;20085;-82
2022/12/19 07:46:29;;;;;;;55.95;22.60;;;;;;;;;;5019576;28;20026;-83
2022/12/19 07:48:54;;;;;;;48.97;20.23;;;;;;;;;;5019288;28;20033;-82
2022/12/19 07:51:22;;;;;;;57.88;23.35;;;;;;;;;;5038047;28;20516;-83
2022/12/19 07:53:48;;;;;;;71.78;29.80;;;;;;;;;;5025644;28;20029;-84
2022/12/19 07:56:14;;;;;;;83.80;32.47;;;;;;;;;;5041144;28;20480;-85
2022/12/19 07:58:40;;;;;;;80.70;32.90;;;;;;;;;;5040053;28;20030;-87
2022/12/19 08:01:05;;;;;;;50.50;22.27;;;;;;;;;;5039121;28;20432;-86
2022/12/19 08:03:32;;;;;;;42.60;18.67;;;;;;;;;;5036003;28;20025;-83
2022/12/19 08:06:03;;;;;;;45.60;19.27;;;;;;;;;;5016255;28;20528;-82
2022/12/19 08:08:29;;;;;;;40.50;17.60;;;;;;;;;;5047561;28;20033;-84
2022/12/19 08:10:55;;;;;;;41.45;18.17;;;;;;;;;;5039257;28;20017;-85
2022/12/19 08:13:21;;;;;;;41.38;18.38;;;;;;;;;;5039478;28;20093;-82
2022/12/19 08:15:47;;;;;;;36.80;16.85;;;;;;;;;;5020740;28;20053;-82
2022/12/19 08:18:12;;;;;;;42.20;18.10;;;;;;;;;;5054346;28;20029;-84
2022/12/19 08:20:38;;;;;;;37.47;17.35;;;;;;;;;;5037975;28;20033;-84
2022/12/19 08:23:03;;;;;;;40.85;16.67;;;;;;;;;;5021408;28;20060;-83
2022/12/19 08:25:29;;;;;;;46.60;21.38;;;;;;;;;;5004751;28;20021;-85
2022/12/19 08:27:54;;;;;;;44.42;20.83;;;;;;;;;;5040519;28;20288;-86
2022/12/19 08:30:20;;;;;;;44.42;21.67;;;;;;;;;;5039245;28;20036;-85
2022/12/19 08:32:45;;;;;;;41.10;18.40;;;;;;;;;;5021375;28;20536;-84
2022/12/19 08:35:11;;;;;;;41.60;18.60;;;;;;;;;;5020536;28;20029;-85
2022/12/19 08:37:37;;;;;;;43.60;19.27;;;;;;;;;;5021344;28;20038;-84
2022/12/19 08:40:03;;;;;;;35.53;16.63;;;;;;;;;;5004831;28;20029;-83
2022/12/19 08:42:28;;;;;;;41.33;17.50;;;;;;;;;;5039581;28;20564;-84
2022/12/19 08:44:54;;;;;;;51.40;20.13;;;;;;;;;;5039107;28;20388;-84
2022/12/19 08:47:20;;;;;;;49.10;19.08;;;;;;;;;;5050643;22;20556;-81
2022/12/19 08:49:46;;;;;;;43.10;19.08;;;;;;;;;;4998211;28;20030;-82
2022/12/19 08:52:11;;;;;;;61.92;24.05;;;;;;;;;;5020048;28;20026;-80
2022/12/19 08:54:37;;;;;;;48.25;19.33;;;;;;;;;;5016983;28;20030;-82
2022/12/19 08:57:02;;;;;;;45.85;17.50;;;;;;;;;;5000825;28;20066;-84
2022/12/19 08:59:28;;;;;;;40.42;17.10;;;;;;;;;;4983756;28;20064;-82
2022/12/19 09:01:53;;;;;;;38.97;18.35;;;;;;;;;;5016517;28;20076;-83
2022/12/19 09:04:19;;;;;;;42.60;17.80;;;;;;;;;;5016872;28;20033;-81
2022/12/19 09:06:44;;;;;;;43.92;19.42;;;;;;;;;;5000237;28;20108;-82
2022/12/19 09:09:10;;;;;;;42.60;19.52;;;;;;;;;;5017064;28;20040;-81
2022/12/19 09:11:35;;;;;;;39.72;14.00;;;;;;;;;;5017499;28;20037;-81
2022/12/19 09:14:01;;;;;;;31.92;14.63;;;;;;;;;;5016740;28;20105;-82
2022/12/19 09:16:27;;;;;;;39.55;16.92;;;;;;;;;;4999206;28;20505;-81
2022/12/19 09:18:57;;;;;;;42.70;17.52;;;;;;;;;;5017435;28;20044;-82
2022/12/19 09:21:24;;;;;;;33.30;14.75;;;;;;;;;;4999348;28;20064;-82
2022/12/19 09:23:53;;;;;;;32.88;14.85;;;;;;;;;;4999406;28;20121;-82
2022/12/19 09:26:20;;;;;;;28.30;13.68;;;;;;;;;;5016229;28;20692;-83
2022/12/19 09:28:47;;;;;;;35.00;15.65;;;;;;;;;;5016900;28;20474;-82
2022/12/19 09:31:19;;;;;;;33.90;14.85;;;;;;;;;;4999076;28;20033;-83
2022/12/19 09:33:45;;;;;;;39.83;18.25;;;;;;;;;;5016448;28;20030;-82
2022/12/19 09:36:21;;;;;;;37.80;18.15;;;;;;;;;;4997552;28;20437;-83
2022/12/19 09:38:48;;;;;;;37.38;17.33;;;;;;;;;;5017626;28;20026;-81
2022/12/19 09:41:22;;;;;;;39.95;17.67;;;;;;;;;;5000717;28;20036;-82
2022/12/19 09:43:48;;;;;;;38.20;18.30;;;;;;;;;;4999413;28;20116;-82
2022/12/19 09:46:43;;;;;;;36.10;16.83;;;;;;;;;;4998238;28;20450;-80
2022/12/19 09:49:12;;;;;;;32.83;15.75;;;;;;;;;;4995897;28;20038;-82
2022/12/19 09:51:44;;;;;;;35.92;16.75;;;;;;;;;;5017239;28;20082;-83
2022/12/19 09:54:38;;;;;;;52.35;24.02;;;;;;;;;;5016395;28;20489;-83
2022/12/19 09:57:12;;;;;;;33.88;16.13;;;;;;;;;;4997088;28;20064;-82
2022/12/19 09:59:55;;;;;;;37.60;15.95;;;;;;;;;;5016979;28;20079;-82
2022/12/19 10:02:23;;;;;;;34.00;15.32;;;;;;;;;;5002932;28;20037;-82
2022/12/19 10:04:56;;;;;;;39.53;19.35;;;;;;;;;;5002266;28;20456;-83
2022/12/19 10:07:22;;;;;;;38.75;17.92;;;;;;;;;;5020145;28;20033;-82
2022/12/19 10:09:47;;;;;;;37.55;16.75;;;;;;;;;;5020071;28;20030;-82
2022/12/19 10:12:45;;;;;;;40.55;18.15;;;;;;;;;;5002403;28;20049;-83
2022/12/19 10:15:23;;;;;;;43.08;18.33;;;;;;;;;;5019579;28;20038;-82
2022/12/19 10:18:16;;;;;;;37.50;18.63;;;;;;;;;;4985333;28;20475;-82
2022/12/19 10:21:06;;;;;;;36.33;17.02;;;;;;;;;;5002331;28;20566;-82
2022/12/19 10:23:51;;;;;;;37.83;16.75;;;;;;;;;;5019613;28;20172;-81
2022/12/19 10:26:42;;;;;;;38.50;17.17;;;;;;;;;;5018875;28;20065;-81
2022/12/19 10:29:23;;;;;;;35.10;16.33;;;;;;;;;;5019274;28;20030;-82
2022/12/19 10:32:14;;;;;;;35.63;17.13;;;;;;;;;;5002363;28;20033;-82
2022/12/19 10:34:42;;;;;;;37.17;18.38;;;;;;;;;;4998156;28;20038;-82
2022/12/19 10:37:25;;;;;;;42.20;19.77;;;;;;;;;;5020458;28;20025;-81
2022/12/19 10:40:19;;;;;;;36.47;18.30;;;;;;;;;;4986401;28;20034;-81
2022/12/19 10:43:01;;;;;;;36.05;17.00;;;;;;;;;;5019320;28;20034;-81
2022/12/19 10:45:33;;;;;;;47.20;21.70;;;;;;;;;;5018058;28;20432;-81
2022/12/19 10:47:59;;;;;;;43.88;22.42;;;;;;;;;;5019124;28;20049;-83
2022/12/19 10:50:28;;;;;;;38.38;18.23;;;;;;;;;;5019272;28;20026;-81
2022/12/19 10:53:02;;;;;;;41.88;17.65;;;;;;;;;;5018867;28;20041;-82
2022/12/19 10:55:41;;;;;;;43.15;17.85;;;;;;;;;;5018144;28;20045;-81
2022/12/19 10:58:21;;;;;;;36.65;16.85;;;;;;;;;;5019241;28;20060;-81
2022/12/19 11:00:59;;;;;;;36.42;17.05;;;;;;;;;;5019264;28;20493;-80
2022/12/19 11:03:25;;;;;;;36.25;17.00;;;;;;;;;;5019224;28;20080;-81
2022/12/19 11:05:53;;;;;;;33.95;16.77;;;;;;;;;;4984457;28;20021;-84
2022/12/19 11:08:30;;;;;;;32.10;15.73;;;;;;;;;;5019116;28;20038;-82
2022/12/19 11:11:15;;;;;;;31.27;14.05;;;;;;;;;;5018057;28;20033;-82
2022/12/19 11:13:41;;;;;;;27.38;12.63;;;;;;;;;;4984739;28;20049;-82
2022/12/19 11:16:07;;;;;;;22.90;10.90;;;;;;;;;;5017796;28;20034;-83
2022/12/19 11:18:39;;;;;;;22.27;10.57;;;;;;;;;;5020087;28;20057;-82
2022/12/19 11:21:18;;;;;;;20.83;11.07;;;;;;;;;;5020078;28;20030;-83
2022/12/19 11:23:58;;;;;;;20.17;10.63;;;;;;;;;;5000481;28;20030;-83
2022/12/19 11:26:51;;;;;;;17.42;8.48;;;;;;;;;;5000166;28;20061;-82
2022/12/19 11:29:36;;;;;;;18.70;9.27;;;;;;;;;;5015686;28;20048;-82
2022/12/19 11:32:02;;;;;;;17.70;8.77;;;;;;;;;;5018577;28;20025;-82
2022/12/19 11:34:35;;;;;;;11.65;6.13;;;;;;;;;;5018080;28;20386;-82
2022/12/19 11:37:01;;;;;;;13.95;6.97;;;;;;;;;;5018401;28;20029;-82
2022/12/19 11:39:39;;;;;;;6.22;3.60;;;;;;;;;;5018495;28;20037;-83
2022/12/19 11:42:19;;;;;;;6.10;2.85;;;;;;;;;;5017181;28;20072;-83
2022/12/19 11:45:01;;;;;;;6.38;3.13;;;;;;;;;;5018161;28;20033;-81
2022/12/19 11:47:41;;;;;;;8.77;4.22;;;;;;;;;;5018103;28;20037;-81
2022/12/19 11:50:15;;;;;;;9.05;5.25;;;;;;;;;;5018033;28;20059;-82
2022/12/19 11:53:03;;;;;;;6.85;3.50;;;;;;;;;;5000769;28;20029;-80
2022/12/19 11:56:07;;;;;;;4.35;2.63;;;;;;;;;;4990378;28;20042;-81
2022/12/19 11:58:33;;;;;;;4.60;2.22;;;;;;;;;;5000707;28;20038;-81
2022/12/19 12:01:21;;;;;;;4.07;2.20;;;;;;;;;;5000285;28;20045;-80
2022/12/19 12:03:58;;;;;;;4.95;2.22;;;;;;;;;;5017664;28;20036;-83
2022/12/19 12:06:32;;;;;;;3.70;1.85;;;;;;;;;;5016209;28;20045;-83
2022/12/19 12:08:58;;;;;;;;;;;;;;;;;;5018314;28;20144;-82
2022/12/19 12:11:32;;;;;;;3.50;1.83;;;;;;;;;;5016991;28;20370;-84
2022/12/19 12:14:29;;;;;;;8.40;4.72;;;;;;;;;;5015989;28;20115;-83
2022/12/19 12:17:12;;;;;;;28.45;14.98;;;;;;;;;;5017632;28;20386;-84
2022/12/19 12:20:01;;;;;;;35.00;16.73;;;;;;;;;;5016404;28;20041;-83
2022/12/19 12:22:43;;;;;;;33.28;17.05;;;;;;;;;;5005469;28;20049;-83
2022/12/19 12:25:46;;;;;;;24.48;13.13;;;;;;;;;;5016025;28;20121;-81
2022/12/19 12:28:29;;;;;;;19.25;10.50;;;;;;;;;;5016159;28;20025;-82
2022/12/19 12:31:18;;;;;;;26.02;12.45;;;;;;;;;;5017278;28;20042;-83
2022/12/19 12:33:55;;;;;;;30.02;15.13;;;;;;;;;;5006259;28;20402;-81
2022/12/19 12:36:32;;;;;;;28.77;14.15;;;;;;;;;;5015317;28;20026;-83
2022/12/19 12:39:42;;;;;;;34.60;14.90;;;;;;;;;;5015197;28;20040;-82
2022/12/19 12:42:16;;;;;;;32.35;15.85;;;;;;;;;;4955552;28;20035;-81
2022/12/19 12:44:44;;;;;;;30.23;15.13;;;;;;;;;;5011163;28;20073;-82
2022/12/19 12:47:21;;;;;;;31.38;15.73;;;;;;;;;;4998502;28;20034;-83
2022/12/19 12:49:54;;;;;;;31.50;15.77;;;;;;;;;;5015162;28;20031;-82
2022/12/19 12:52:33;;;;;;;32.47;16.30;;;;;;;;;;5015247;28;20025;-83
2022/12/19 12:55:00;;;;;;;31.70;15.43;;;;;;;;;;5015511;28;20026;-83
2022/12/19 12:57:25;;;;;;;28.33;15.48;;;;;;;;;;5015093;28;20044;-83
2022/12/19 13:00:19;;;;;;;30.60;15.00;;;;;;;;;;5016246;28;20025;-82
2022/12/19 13:02:54;;;;;;;29.08;14.50;;;;;;;;;;5016485;28;20113;-83
2022/12/19 13:05:34;;;;;;;25.08;13.38;;;;;;;;;;5015601;28;20033;-83
2022/12/19 13:08:00;;;;;;;25.92;13.35;;;;;;;;;;5015111;28;20104;-83
2022/12/19 13:10:29;;;;;;;26.65;14.35;;;;;;;;;;5015561;28;20034;-83
2022/12/19 13:13:00;;;;;;;29.00;13.95;;;;;;;;;;5016532;28;20474;-82
2022/12/19 13:15:26;;;;;;;28.50;14.65;;;;;;;;;;5016061;28;20037;-83
2022/12/19 13:17:51;;;;;;;29.85;14.68;;;;;;;;;;5015466;28;20033;-83
2022/12/19 13:20:16;;;;;;;26.75;13.70;;;;;;;;;;5016469;28;20037;-83
2022/12/19 13:22:57;;;;;;;29.33;14.27;;;;;;;;;;5015322;28;20026;-83
2022/12/19 13:25:26;;;;;;;30.45;14.82;;;;;;;;;;5015702;28;20033;-84
2022/12/19 13:28:34;;;;;;;26.33;14.65;;;;;;;;;;5016908;28;20132;-83
2022/12/19 13:31:03;;;;;;;25.67;14.43;;;;;;;;;;4988816;28;20042;-83
2022/12/19 13:33:50;;;;;;;33.53;18.10;;;;;;;;;;5015657;28;20021;-82
2022/12/19 13:36:50;;;;;;;30.02;14.50;;;;;;;;;;5015577;28;20526;-82
2022/12/19 13:39:40;;;;;;;39.30;21.08;;;;;;;;;;5015271;28;20085;-84
2022/12/19 13:44:57;;;;;;;27.52;14.68;;;;;;;;;;5017251;28;20163;-82
2022/12/19 13:47:23;;;;;;;28.10;14.60;;;;;;;;;;4997752;28;20033;-83
2022/12/19 13:49:49;;;;;;;29.70;14.48;;;;;;;;;;5015173;28;20040;-83
2022/12/19 13:52:16;;;;;;;29.88;14.85;;;;;;;;;;5014738;28;20120;-82
2022/12/19 13:54:50;;;;;;;28.42;15.50;;;;;;;;;;5016305;28;20030;-83
2022/12/19 13:57:29;;;;;;;28.80;15.27;;;;;;;;;;5015174;28;20044;-84
2022/12/19 14:00:02;;;;;;;31.17;15.80;;;;;;;;;;5016243;28;20025;-82
2022/12/19 14:02:38;;;;;;;27.67;14.70;;;;;;;;;;5014280;28;20037;-84
2022/12/19 14:05:05;;;;;;;29.95;14.73;;;;;;;;;;5014968;28;20083;-83
2022/12/19 14:07:40;;;;;;;28.60;14.48;;;;;;;;;;5014531;28;20021;-83
2022/12/19 14:10:20;;;;;;;27.42;14.00;;;;;;;;;;5015103;28;20043;-83
2022/12/19 14:15:33;;;;;;;33.40;15.88;;;;;;;;;;5015117;28;20075;-82
2022/12/19 14:18:00;;;;;;;33.08;16.88;;;;;;;;;;5015626;28;20030;-83
2022/12/19 14:20:27;;;;;;;35.25;17.42;;;;;;;;;;5015646;28;20033;-83
2022/12/19 14:22:58;;;;;;;36.00;18.10;;;;;;;;;;5015755;28;20509;-83
2022/12/19 14:25:33;;;;;;;31.92;17.08;;;;;;;;;;5014766;28;20038;-83
2022/12/19 14:28:04;;;;;;;34.92;17.35;;;;;;;;;;4999202;28;20034;-82
2022/12/19 14:30:33;;;;;;;34.60;17.38;;;;;;;;;;4998536;28;20034;-81
2022/12/19 14:33:05;;;;;;;37.55;18.08;;;;;;;;;;5013958;28;20396;-84
2022/12/19 14:35:36;;;;;;;43.35;19.85;;;;;;;;;;5014988;28;20030;-83
2022/12/19 14:38:06;;;;;;;46.20;20.15;;;;;;;;;;5015488;28;20096;-83
2022/12/19 14:40:32;;;;;;;36.15;17.70;;;;;;;;;;4998147;28;20037;-84
2022/12/19 14:45:48;;;;;;;56.10;23.50;;;;;;;;;;5025477;28;20079;-83
2022/12/19 14:48:54;;;;;;;53.67;22.02;;;;;;;;;;5028326;28;20022;-84
2022/12/19 14:51:19;;;;;;;39.58;17.90;;;;;;;;;;5034396;23;20053;-83
2022/12/19 14:54:17;;;;;;;38.75;17.45;;;;;;;;;;5020918;28;20471;-85
2022/12/19 14:56:54;;;;;;;59.30;29.77;;;;;;;;;;5004017;28;20030;-85
2022/12/19 14:59:44;;;;;;;51.70;25.45;;;;;;;;;;5021396;28;20056;-86
2022/12/19 15:02:24;;;;;;;54.42;25.90;;;;;;;;;;5000416;28;20101;-86